Denmark, Iowa
Current Conditions -  °F | °C
As of 6:35 AM on Saturday 25 Oct 2014 (Local Time) from KFSW Reporting Station
Moderate Fog Moderate Fog  
Wind Chill: 52°   Ceiling: 100
Heat Index: 52°   Visibility: 0.25mi
Dew Point: 52°   Wind: 3mph
Humidity: 100%   Direction: 220°SW
Pressure: 30"   Gusts: NA
Location:  40.74°N, 91.34°W
Report Text: KFSW 251135Z AUTO 22003KT 1/4SM FG OVC001 11/11 A3000 RMK AO2
Loading
Personal Weather Stations






























Interactive Weather Map
Tropical Storm Tracking
New forecast layout! Learn more

10-Day Weather Forecast

Advertisements
Track Severe Weather on mobile